Time;durP1;ratioP1;P1;durP2;ratioP2;P2;SDS_P1;SDS_P2;PMS_P1;PMS_P2;Temp;Humidity;BMP_temperature;BMP_pressure;BME280_temperature;BME280_humidity;BME280_pressure;Samples;Min_cycle;Max_cycle;Signal;HPM_P1;HPM_P2
2022/03/25 00:00:20;;;;;;;9.60;6.57;;;;;;;;;;6155609;23;20412;-76
2022/03/25 00:02:50;;;;;;;8.38;6.07;;;;;;;;;;6156812;23;20017;-76
2022/03/25 00:05:19;;;;;;;8.63;6.38;;;;;;;;;;6145852;23;20021;-76
2022/03/25 00:07:47;;;;;;;6.82;5.95;;;;;;;;;;6095219;23;20013;-76
2022/03/25 00:10:15;;;;;;;8.23;5.38;;;;;;;;;;6148710;23;20026;-77
2022/03/25 00:12:43;;;;;;;7.55;4.93;;;;;;;;;;6120805;23;20049;-76
2022/03/25 00:15:13;;;;;;;9.07;6.03;;;;;;;;;;6157381;23;20017;-76
2022/03/25 00:17:46;;;;;;;7.93;5.13;;;;;;;;;;6121283;23;20757;-76
2022/03/25 00:20:14;;;;;;;15.10;8.88;;;;;;;;;;6129787;23;20024;-76
2022/03/25 00:22:42;;;;;;;12.05;6.78;;;;;;;;;;6157048;23;20014;-76
2022/03/25 00:25:10;;;;;;;9.82;6.20;;;;;;;;;;6126760;23;20059;-76
2022/03/25 00:27:38;;;;;;;6.80;5.45;;;;;;;;;;6157216;23;20037;-76
2022/03/25 00:30:07;;;;;;;11.85;7.55;;;;;;;;;;6098503;23;20022;-76
2022/03/25 00:32:35;;;;;;;12.50;6.63;;;;;;;;;;6154648;23;20034;-76
2022/03/25 00:35:04;;;;;;;8.35;6.03;;;;;;;;;;6157282;23;20037;-76
2022/03/25 00:37:34;;;;;;;9.35;6.55;;;;;;;;;;6150053;23;20029;-76
2022/03/25 00:40:02;;;;;;;12.15;8.93;;;;;;;;;;6157378;23;20421;-76
2022/03/25 00:42:30;;;;;;;7.18;6.40;;;;;;;;;;6147523;23;20021;-76
2022/03/25 00:45:01;;;;;;;13.30;6.90;;;;;;;;;;6153399;23;20033;-76
2022/03/25 00:47:29;;;;;;;10.45;6.63;;;;;;;;;;6106285;23;20013;-76
2022/03/25 00:49:57;;;;;;;10.90;6.75;;;;;;;;;;6122773;23;20026;-76
2022/03/25 00:52:26;;;;;;;10.80;6.00;;;;;;;;;;6146361;23;20460;-76
2022/03/25 00:54:55;;;;;;;12.50;7.72;;;;;;;;;;6131212;23;20026;-76
2022/03/25 00:57:23;;;;;;;9.32;6.55;;;;;;;;;;6151397;23;20567;-76
2022/03/25 00:59:52;;;;;;;10.05;6.63;;;;;;;;;;6120332;23;20025;-76
2022/03/25 01:02:20;;;;;;;8.27;5.43;;;;;;;;;;6147615;23;20033;-76
2022/03/25 01:05:12;;;;;;;8.75;5.32;;;;;;;;;;6154124;23;20025;-76
2022/03/25 01:08:35;;;;;;;9.82;5.03;;;;;;;;;;6154453;23;20333;-76
2022/03/25 01:11:52;;;;;;;11.63;6.25;;;;;;;;;;6157768;23;20014;-76
2022/03/25 01:15:17;;;;;;;14.65;6.22;;;;;;;;;;6076958;23;20441;-76
2022/03/25 01:18:35;;;;;;;8.82;8.05;;;;;;;;;;6145992;23;20030;-76
2022/03/25 01:21:27;;;;;;;6.65;5.45;;;;;;;;;;6128066;23;20033;-76
2022/03/25 01:24:32;;;;;;;29.77;8.07;;;;;;;;;;6156165;23;20029;-76
2022/03/25 01:27:01;;;;;;;11.77;5.88;;;;;;;;;;6133022;23;20315;-76
2022/03/25 01:29:50;;;;;;;5.93;5.30;;;;;;;;;;6101063;23;20021;-76
2022/03/25 01:32:41;;;;;;;6.28;4.90;;;;;;;;;;6130857;23;20029;-76
2022/03/25 01:35:13;;;;;;;10.60;6.68;;;;;;;;;;6159281;23;20521;-76
2022/03/25 01:37:43;;;;;;;14.23;6.68;;;;;;;;;;6125008;23;20053;-76
2022/03/25 01:40:11;;;;;;;6.85;5.75;;;;;;;;;;6158076;23;20013;-76
2022/03/25 01:42:41;;;;;;;8.95;7.68;;;;;;;;;;6159334;23;20417;-76
2022/03/25 01:45:11;;;;;;;9.18;5.22;;;;;;;;;;6097355;23;20025;-76
2022/03/25 01:47:41;;;;;;;8.68;5.85;;;;;;;;;;6122596;23;20017;-76
2022/03/25 01:50:19;;;;;;;9.10;5.75;;;;;;;;;;6149938;23;20028;-76
2022/03/25 01:52:47;;;;;;;10.05;5.93;;;;;;;;;;6155199;23;20029;-76
2022/03/25 01:55:17;;;;;;;7.22;6.50;;;;;;;;;;6132851;23;20711;-76
2022/03/25 01:57:54;;;;;;;7.18;5.72;;;;;;;;;;6124876;23;20021;-76
2022/03/25 02:00:40;;;;;;;9.77;5.32;;;;;;;;;;6155992;23;20025;-76
2022/03/25 02:03:08;;;;;;;8.13;7.15;;;;;;;;;;6158931;23;20022;-76
2022/03/25 02:05:36;;;;;;;13.02;6.50;;;;;;;;;;6148792;23;20029;-76
2022/03/25 02:08:04;;;;;;;8.50;7.57;;;;;;;;;;6157871;23;20025;-75
2022/03/25 02:10:33;;;;;;;8.32;4.65;;;;;;;;;;6120494;23;20040;-76
2022/03/25 02:13:01;;;;;;;8.10;6.05;;;;;;;;;;6154348;23;20025;-75
2022/03/25 02:15:33;;;;;;;11.93;6.18;;;;;;;;;;6133003;23;20532;-76
2022/03/25 02:18:12;;;;;;;9.32;5.70;;;;;;;;;;6123249;23;20029;-76
2022/03/25 02:20:41;;;;;;;7.57;5.60;;;;;;;;;;6155623;23;20056;-76
2022/03/25 02:23:13;;;;;;;9.57;6.07;;;;;;;;;;6158223;23;20021;-76
2022/03/25 02:25:50;;;;;;;9.77;6.57;;;;;;;;;;6147824;23;20483;-76
2022/03/25 02:28:18;;;;;;;13.60;6.10;;;;;;;;;;6130571;23;20017;-76
2022/03/25 02:30:48;;;;;;;4.72;3.80;;;;;;;;;;6131697;23;20013;-76
2022/03/25 02:33:16;;;;;;;7.68;5.20;;;;;;;;;;6126586;23;20545;-76
2022/03/25 02:35:48;;;;;;;9.15;7.05;;;;;;;;;;6158521;23;20020;-76
2022/03/25 02:38:32;;;;;;;11.07;6.43;;;;;;;;;;6121883;23;20036;-76
2022/03/25 02:42:00;;;;;;;14.13;5.65;;;;;;;;;;6126741;23;20345;-76
2022/03/25 02:45:24;;;;;;;7.45;5.03;;;;;;;;;;6153741;23;20476;-76
2022/03/25 02:48:45;;;;;;;9.32;6.05;;;;;;;;;;6100299;23;20036;-81
2022/03/25 02:52:08;;;;;;;11.20;6.68;;;;;;;;;;6083159;23;20342;-81
2022/03/25 02:55:14;;;;;;;13.55;6.80;;;;;;;;;;6084057;23;20457;-81
2022/03/25 02:57:54;;;;;;;10.68;6.75;;;;;;;;;;6123115;23;20029;-81
2022/03/25 03:00:52;;;;;;;9.65;7.20;;;;;;;;;;6153815;23;20032;-81
2022/03/25 03:03:21;;;;;;;9.30;6.60;;;;;;;;;;6158391;23;20018;-81
2022/03/25 03:05:49;;;;;;;7.10;5.05;;;;;;;;;;6150997;23;20033;-81
2022/03/25 03:08:17;;;;;;;6.70;5.88;;;;;;;;;;6156117;23;20017;-81
2022/03/25 03:10:46;;;;;;;8.50;6.30;;;;;;;;;;6157844;23;20013;-81
2022/03/25 03:13:19;;;;;;;10.10;8.48;;;;;;;;;;6152430;23;20032;-81
2022/03/25 03:15:47;;;;;;;17.92;5.50;;;;;;;;;;6158375;23;20358;-80
2022/03/25 03:18:16;;;;;;;8.63;6.32;;;;;;;;;;6148364;23;20084;-80
2022/03/25 03:20:44;;;;;;;7.55;6.40;;;;;;;;;;6128990;23;20036;-80
2022/03/25 03:23:12;;;;;;;14.23;8.27;;;;;;;;;;6157665;23;20018;-80
2022/03/25 03:25:40;;;;;;;8.45;5.82;;;;;;;;;;6150963;23;20022;-81
2022/03/25 03:28:08;;;;;;;10.68;7.03;;;;;;;;;;6157378;23;20025;-80
2022/03/25 03:30:36;;;;;;;8.43;5.95;;;;;;;;;;6131999;23;20017;-80
2022/03/25 03:33:05;;;;;;;10.20;8.48;;;;;;;;;;6147011;23;20057;-80
2022/03/25 03:35:36;;;;;;;9.75;7.00;;;;;;;;;;6157747;23;20021;-80
2022/03/25 03:38:04;;;;;;;6.72;5.53;;;;;;;;;;6119789;23;20495;-81
2022/03/25 03:40:33;;;;;;;6.50;4.50;;;;;;;;;;6155552;23;20028;-81
2022/03/25 03:43:03;;;;;;;8.02;6.13;;;;;;;;;;6157062;23;20341;-81
2022/03/25 03:45:32;;;;;;;22.95;8.27;;;;;;;;;;6151834;23;20025;-80
2022/03/25 03:48:00;;;;;;;8.20;6.55;;;;;;;;;;6157412;23;20013;-80
2022/03/25 03:50:27;;;;;;;10.00;7.03;;;;;;;;;;6147526;23;20017;-80
2022/03/25 03:52:55;;;;;;;14.48;8.35;;;;;;;;;;6127013;23;20025;-80
2022/03/25 03:55:23;;;;;;;11.35;9.68;;;;;;;;;;6157792;23;20017;-80
2022/03/25 03:58:10;;;;;;;11.40;6.68;;;;;;;;;;6148417;23;20040;-80
2022/03/25 04:00:38;;;;;;;9.77;7.57;;;;;;;;;;6150224;23;20026;-80
2022/03/25 04:03:06;;;;;;;39.28;10.15;;;;;;;;;;6157597;23;20025;-80
2022/03/25 04:05:34;;;;;;;12.23;7.43;;;;;;;;;;6151109;23;20025;-80
2022/03/25 04:08:02;;;;;;;17.67;6.78;;;;;;;;;;6119970;23;20017;-81
2022/03/25 04:10:30;;;;;;;10.55;8.48;;;;;;;;;;6147292;23;20327;-80
2022/03/25 04:12:58;;;;;;;8.95;6.85;;;;;;;;;;6127575;23;20217;-80
2022/03/25 04:15:27;;;;;;;12.18;9.07;;;;;;;;;;6157672;23;20020;-80
2022/03/25 04:17:55;;;;;;;12.70;7.82;;;;;;;;;;6148769;23;20028;-80
2022/03/25 04:20:23;;;;;;;11.52;8.32;;;;;;;;;;6155756;23;20025;-80
2022/03/25 04:22:51;;;;;;;10.77;8.07;;;;;;;;;;6156907;23;20710;-80
2022/03/25 04:25:19;;;;;;;12.70;7.95;;;;;;;;;;6151997;23;20376;-80
2022/03/25 04:27:51;;;;;;;9.18;6.18;;;;;;;;;;6157476;23;20018;-80
2022/03/25 04:30:20;;;;;;;13.45;10.27;;;;;;;;;;6146944;23;20028;-80
2022/03/25 04:32:48;;;;;;;12.30;8.23;;;;;;;;;;6127817;23;20029;-80
2022/03/25 04:35:17;;;;;;;9.55;7.03;;;;;;;;;;6157443;23;20018;-80
2022/03/25 04:37:44;;;;;;;10.18;7.95;;;;;;;;;;6149037;23;20681;-80
2022/03/25 04:40:15;;;;;;;20.60;11.02;;;;;;;;;;6156170;23;20013;-80
2022/03/25 04:42:43;;;;;;;12.50;6.65;;;;;;;;;;6156753;23;20013;-80
2022/03/25 04:45:11;;;;;;;11.25;7.75;;;;;;;;;;6152648;23;20025;-80
2022/03/25 04:47:39;;;;;;;15.23;7.35;;;;;;;;;;6157317;23;20018;-80
2022/03/25 04:50:07;;;;;;;15.55;10.63;;;;;;;;;;6122198;23;20021;-80
2022/03/25 04:52:35;;;;;;;11.40;7.30;;;;;;;;;;6154615;23;20025;-80
2022/03/25 04:55:04;;;;;;;16.75;9.07;;;;;;;;;;6157298;23;20020;-80
2022/03/25 04:57:32;;;;;;;10.88;6.95;;;;;;;;;;6150331;23;20022;-79
2022/03/25 05:00:01;;;;;;;12.20;8.82;;;;;;;;;;6147346;23;20349;-80
2022/03/25 05:02:34;;;;;;;15.10;10.32;;;;;;;;;;6146326;23;20023;-80
2022/03/25 05:05:02;;;;;;;14.52;9.07;;;;;;;;;;6126975;23;20032;-82
2022/03/25 05:07:30;;;;;;;12.98;8.85;;;;;;;;;;6156684;23;20345;-80
2022/03/25 05:09:59;;;;;;;12.15;7.85;;;;;;;;;;6148330;23;20026;-80
2022/03/25 05:12:27;;;;;;;14.30;8.55;;;;;;;;;;6155900;23;20021;-80
2022/03/25 05:14:55;;;;;;;14.88;7.35;;;;;;;;;;6156879;23;20018;-80
2022/03/25 05:17:23;;;;;;;12.43;8.35;;;;;;;;;;6151607;23;20345;-80
2022/03/25 05:19:51;;;;;;;15.65;10.30;;;;;;;;;;6157140;23;20013;-80
2022/03/25 05:22:19;;;;;;;17.35;8.13;;;;;;;;;;6095388;23;20037;-80
2022/03/25 05:24:47;;;;;;;13.05;8.27;;;;;;;;;;6096629;23;20022;-81
2022/03/25 05:27:16;;;;;;;11.02;7.90;;;;;;;;;;6131476;23;20037;-81
2022/03/25 05:29:45;;;;;;;15.18;11.82;;;;;;;;;;6120392;23;20476;-79
2022/03/25 05:32:13;;;;;;;10.20;7.30;;;;;;;;;;6157031;23;20013;-81
2022/03/25 05:34:42;;;;;;;11.40;8.02;;;;;;;;;;6157630;23;20013;-85
2022/03/25 05:37:10;;;;;;;15.88;10.80;;;;;;;;;;6151706;23;20037;-79
2022/03/25 05:39:38;;;;;;;12.68;7.53;;;;;;;;;;6155600;23;20452;-79
2022/03/25 05:42:06;;;;;;;15.38;9.43;;;;;;;;;;6059831;23;20025;-79
2022/03/25 05:44:34;;;;;;;7.22;6.43;;;;;;;;;;6154554;23;20563;-78
2022/03/25 05:47:02;;;;;;;16.83;10.80;;;;;;;;;;6157504;23;20310;-80
2022/03/25 05:49:30;;;;;;;15.18;8.73;;;;;;;;;;6149551;23;20032;-80
2022/03/25 05:51:58;;;;;;;14.25;11.35;;;;;;;;;;6157207;23;20014;-82
2022/03/25 05:54:26;;;;;;;12.43;8.38;;;;;;;;;;6119295;23;20032;-81
2022/03/25 05:56:54;;;;;;;13.98;8.77;;;;;;;;;;6153788;23;20026;-79
2022/03/25 05:59:22;;;;;;;13.90;8.48;;;;;;;;;;6149470;23;20022;-82
2022/03/25 06:01:50;;;;;;;10.70;8.80;;;;;;;;;;6097176;23;20029;-80
2022/03/25 06:04:20;;;;;;;12.73;9.85;;;;;;;;;;6120303;23;20029;-78
2022/03/25 06:06:48;;;;;;;13.63;8.77;;;;;;;;;;6148011;23;20017;-79
2022/03/25 06:09:16;;;;;;;16.85;7.60;;;;;;;;;;6152698;23;20074;-80
2022/03/25 06:11:44;;;;;;;13.90;9.75;;;;;;;;;;6159237;23;20025;-80
2022/03/25 06:14:12;;;;;;;11.90;8.23;;;;;;;;;;6150050;23;20022;-82
2022/03/25 06:16:40;;;;;;;17.25;8.43;;;;;;;;;;6155842;23;20033;-81
2022/03/25 06:19:09;;;;;;;12.05;7.22;;;;;;;;;;6158035;23;20024;-80
2022/03/25 06:21:42;;;;;;;12.52;9.38;;;;;;;;;;6122226;23;20436;-79
2022/03/25 06:24:10;;;;;;;12.25;8.75;;;;;;;;;;6131400;23;20028;-81
2022/03/25 06:26:38;;;;;;;17.20;11.90;;;;;;;;;;6132400;23;20014;-78
2022/03/25 06:29:09;;;;;;;21.48;12.70;;;;;;;;;;6153681;23;20032;-79
2022/03/25 06:31:38;;;;;;;11.27;10.10;;;;;;;;;;6159071;23;20346;-79
2022/03/25 06:34:09;;;;;;;11.73;6.80;;;;;;;;;;6149388;23;20032;-86
2022/03/25 06:36:38;;;;;;;12.88;8.88;;;;;;;;;;6156544;23;20032;-82
2022/03/25 06:39:06;;;;;;;11.10;7.93;;;;;;;;;;6131228;23;20024;-84
2022/03/25 06:41:33;;;;;;;14.02;9.80;;;;;;;;;;6152487;23;20029;-83
2022/03/25 06:44:02;;;;;;;17.48;9.80;;;;;;;;;;6132413;23;20095;-82
2022/03/25 06:46:30;;;;;;;19.27;9.18;;;;;;;;;;6149137;23;20029;-83
2022/03/25 06:48:58;;;;;;;8.95;7.88;;;;;;;;;;6154595;23;20030;-82
2022/03/25 06:51:26;;;;;;;15.05;10.18;;;;;;;;;;6159087;23;20052;-82
2022/03/25 06:53:54;;;;;;;14.85;7.45;;;;;;;;;;6124011;23;20060;-81
2022/03/25 06:56:22;;;;;;;13.63;8.70;;;;;;;;;;6156596;23;20021;-82
2022/03/25 06:58:52;;;;;;;16.73;7.95;;;;;;;;;;6153292;23;20021;-82
2022/03/25 07:01:20;;;;;;;17.77;11.27;;;;;;;;;;6127472;23;20026;-83
2022/03/25 07:03:48;;;;;;;17.70;8.98;;;;;;;;;;6122396;23;20017;-83
2022/03/25 07:06:21;;;;;;;12.20;8.88;;;;;;;;;;6122356;23;20044;-82
2022/03/25 07:08:51;;;;;;;14.57;12.27;;;;;;;;;;6120846;23;20033;-82
2022/03/25 07:11:19;;;;;;;11.85;9.90;;;;;;;;;;6158710;23;20018;-83
2022/03/25 07:13:47;;;;;;;16.25;8.45;;;;;;;;;;6151632;23;20032;-83
2022/03/25 07:16:17;;;;;;;14.52;7.68;;;;;;;;;;6157461;23;20032;-82
2022/03/25 07:18:45;;;;;;;10.18;7.88;;;;;;;;;;6157547;23;20014;-85
2022/03/25 07:21:13;;;;;;;11.00;9.85;;;;;;;;;;6152385;23;20036;-83
2022/03/25 07:23:41;;;;;;;14.70;7.97;;;;;;;;;;6157636;23;20018;-83
2022/03/25 07:26:09;;;;;;;12.02;8.63;;;;;;;;;;6149556;23;20029;-83
2022/03/25 07:28:37;;;;;;;19.48;8.93;;;;;;;;;;6155359;23;20040;-83
2022/03/25 07:31:06;;;;;;;8.05;6.28;;;;;;;;;;6158202;23;20028;-83
2022/03/25 07:33:34;;;;;;;9.77;6.68;;;;;;;;;;6151084;23;20029;-83
2022/03/25 07:36:02;;;;;;;12.40;7.93;;;;;;;;;;6158367;23;20013;-83
2022/03/25 07:38:30;;;;;;;12.25;8.00;;;;;;;;;;6146988;23;20029;-82
2022/03/25 07:40:58;;;;;;;8.90;5.78;;;;;;;;;;6154706;23;20025;-82
2022/03/25 07:43:26;;;;;;;11.43;9.05;;;;;;;;;;6158073;23;20020;-83
2022/03/25 07:45:54;;;;;;;13.32;10.32;;;;;;;;;;6150469;23;20036;-83
2022/03/25 07:48:22;;;;;;;15.82;9.63;;;;;;;;;;6155384;23;20566;-83
2022/03/25 07:50:50;;;;;;;10.95;6.90;;;;;;;;;;6157360;23;20018;-83
2022/03/25 07:53:18;;;;;;;16.10;7.13;;;;;;;;;;6151523;23;20030;-83
2022/03/25 07:55:50;;;;;;;10.50;9.05;;;;;;;;;;6157848;23;20021;-83
2022/03/25 07:58:19;;;;;;;6.75;5.97;;;;;;;;;;6147907;23;20026;-82
2022/03/25 08:00:47;;;;;;;12.23;8.05;;;;;;;;;;6154380;23;20558;-82
2022/03/25 08:03:16;;;;;;;9.43;7.70;;;;;;;;;;6157555;23;20018;-82
2022/03/25 08:05:45;;;;;;;12.48;7.88;;;;;;;;;;6150963;23;20033;-82
2022/03/25 08:08:13;;;;;;;15.70;7.07;;;;;;;;;;6155678;23;20307;-81
2022/03/25 08:10:41;;;;;;;12.50;8.05;;;;;;;;;;6131478;23;20025;-82
2022/03/25 08:13:10;;;;;;;12.00;7.25;;;;;;;;;;6153249;23;20029;-82
2022/03/25 08:15:38;;;;;;;14.25;9.20;;;;;;;;;;6157211;23;20489;-87
2022/03/25 08:18:19;;;;;;;19.65;7.55;;;;;;;;;;6120994;23;20026;-81
2022/03/25 08:20:48;;;;;;;14.68;7.20;;;;;;;;;;6153601;23;20033;-83
2022/03/25 08:28:51;;;;;;;10.13;8.43;;;;;;;;;;6154545;23;20025;-83
2022/03/25 08:31:39;;;;;;;11.45;7.63;;;;;;;;;;6158700;23;20024;-82
2022/03/25 08:34:13;;;;;;;10.63;8.68;;;;;;;;;;6148967;23;20041;-83
2022/03/25 08:36:42;;;;;;;9.43;6.82;;;;;;;;;;6104744;23;20029;-82
2022/03/25 08:39:10;;;;;;;17.42;7.47;;;;;;;;;;6156714;23;20013;-82
2022/03/25 08:41:39;;;;;;;8.55;6.75;;;;;;;;;;6150751;23;20064;-82
2022/03/25 08:44:07;;;;;;;10.48;7.68;;;;;;;;;;6156861;23;20024;-83
2022/03/25 08:46:35;;;;;;;12.18;8.20;;;;;;;;;;6146280;23;20072;-81
2022/03/25 08:49:12;;;;;;;11.80;7.60;;;;;;;;;;6126843;23;20064;-82
2022/03/25 08:51:40;;;;;;;;;;;;;;;;;;6158808;23;20486;-82
2022/03/25 08:54:12;;;;;;;8.43;6.45;;;;;;;;;;6122101;23;19928;-81
2022/03/25 08:56:40;;;;;;;14.63;7.60;;;;;;;;;;6154620;23;20041;-82
2022/03/25 08:59:09;;;;;;;9.65;6.53;;;;;;;;;;6149633;23;20021;-80
2022/03/25 09:01:37;;;;;;;12.20;8.05;;;;;;;;;;6151085;23;20025;-84
2022/03/25 09:04:05;;;;;;;8.32;5.88;;;;;;;;;;6157341;23;20017;-82
2022/03/25 09:06:33;;;;;;;9.25;6.30;;;;;;;;;;6146272;23;20026;-82
2022/03/25 09:09:01;;;;;;;10.38;6.35;;;;;;;;;;6152085;23;20033;-82
2022/03/25 09:11:31;;;;;;;8.18;6.57;;;;;;;;;;6156936;23;20024;-78
2022/03/25 09:13:59;;;;;;;13.43;7.82;;;;;;;;;;6149252;23;20026;-78
2022/03/25 09:16:27;;;;;;;9.02;6.95;;;;;;;;;;6155960;23;20014;-81
2022/03/25 09:18:55;;;;;;;9.77;8.57;;;;;;;;;;6157486;23;20021;-80
2022/03/25 09:21:24;;;;;;;11.50;8.52;;;;;;;;;;6151589;23;20033;-79
2022/03/25 09:23:52;;;;;;;8.93;6.55;;;;;;;;;;6156157;23;20017;-80
2022/03/25 09:26:20;;;;;;;13.95;9.35;;;;;;;;;;6147433;23;20032;-80
2022/03/25 09:28:48;;;;;;;8.23;6.90;;;;;;;;;;6121822;23;20057;-81
2022/03/25 09:31:16;;;;;;;9.05;7.43;;;;;;;;;;6157060;23;20040;-79
2022/03/25 09:36:51;;;;;;;9.45;7.13;;;;;;;;;;6153319;23;20029;-81
2022/03/25 09:39:19;;;;;;;9.90;6.65;;;;;;;;;;6129627;23;20017;-79
2022/03/25 09:41:47;;;;;;;8.18;6.32;;;;;;;;;;6149341;23;20033;-77
2022/03/25 09:44:17;;;;;;;11.45;6.80;;;;;;;;;;6157717;23;20022;-80
2022/03/25 09:46:52;;;;;;;13.80;7.00;;;;;;;;;;6148153;23;20353;-80
2022/03/25 09:49:20;;;;;;;6.97;6.28;;;;;;;;;;6126859;23;20025;-85
2022/03/25 09:51:48;;;;;;;12.38;7.75;;;;;;;;;;6160331;23;20476;-86
2022/03/25 09:54:17;;;;;;;9.85;7.18;;;;;;;;;;6151912;23;20022;-88
2022/03/25 09:56:45;;;;;;;9.60;6.75;;;;;;;;;;6157964;23;20457;-88
2022/03/25 09:59:17;;;;;;;19.05;8.57;;;;;;;;;;6154282;23;20349;-85
2022/03/25 10:01:45;;;;;;;14.10;9.10;;;;;;;;;;6151987;23;20041;-83
2022/03/25 10:04:33;;;;;;;12.27;7.90;;;;;;;;;;6157855;23;20024;-83
2022/03/25 10:07:01;;;;;;;17.00;8.43;;;;;;;;;;6158967;23;20013;-83
2022/03/25 10:09:28;;;;;;;12.10;7.78;;;;;;;;;;6152210;23;20033;-83
2022/03/25 10:11:56;;;;;;;15.15;9.70;;;;;;;;;;6159139;23;20018;-83
2022/03/25 10:14:28;;;;;;;11.90;8.88;;;;;;;;;;6097967;23;20040;-83
2022/03/25 10:16:59;;;;;;;16.25;7.85;;;;;;;;;;6121946;23;20052;-83
2022/03/25 10:19:42;;;;;;;13.15;9.60;;;;;;;;;;6158448;23;20017;-83
2022/03/25 10:22:10;;;;;;;14.07;10.73;;;;;;;;;;6123636;23;20025;-82
2022/03/25 10:24:49;;;;;;;11.30;8.43;;;;;;;;;;6151299;23;20036;-82
2022/03/25 10:27:24;;;;;;;12.73;9.10;;;;;;;;;;6108078;23;20021;-81
2022/03/25 10:29:55;;;;;;;9.65;8.38;;;;;;;;;;6097604;23;20027;-83
2022/03/25 10:32:27;;;;;;;20.27;8.05;;;;;;;;;;6121652;23;20026;-83
2022/03/25 10:35:09;;;;;;;15.98;9.98;;;;;;;;;;6158705;23;20416;-82
2022/03/25 10:37:38;;;;;;;15.95;10.60;;;;;;;;;;6151202;23;20029;-82
2022/03/25 10:40:07;;;;;;;19.20;9.93;;;;;;;;;;6159329;23;20024;-82
2022/03/25 10:42:36;;;;;;;21.50;10.95;;;;;;;;;;6147852;23;20362;-83
2022/03/25 10:45:28;;;;;;;16.08;10.55;;;;;;;;;;6154293;23;20026;-82
2022/03/25 10:47:56;;;;;;;;;;;;;;;;;;6139346;23;20014;-82
2022/03/25 10:50:24;;;;;;;9.35;8.40;;;;;;;;;;6149284;23;19920;-83
2022/03/25 10:52:52;;;;;;;14.40;11.13;;;;;;;;;;6154176;23;20021;-83
2022/03/25 10:55:21;;;;;;;14.57;9.90;;;;;;;;;;6158479;23;20013;-83
2022/03/25 10:58:01;;;;;;;17.27;9.60;;;;;;;;;;6150378;23;20036;-83
2022/03/25 11:00:29;;;;;;;14.20;10.23;;;;;;;;;;6156880;23;20036;-82
2022/03/25 11:02:59;;;;;;;24.23;12.70;;;;;;;;;;6158230;23;20025;-83
2022/03/25 11:05:34;;;;;;;19.77;12.43;;;;;;;;;;6148141;23;20234;-83
2022/03/25 11:08:02;;;;;;;14.93;10.75;;;;;;;;;;6157335;23;20014;-82
2022/03/25 11:10:30;;;;;;;16.65;10.70;;;;;;;;;;6148007;23;20049;-83
2022/03/25 11:13:03;;;;;;;19.10;11.38;;;;;;;;;;6154445;23;20653;-84
2022/03/25 11:15:35;;;;;;;17.92;12.32;;;;;;;;;;6158712;23;20018;-82
2022/03/25 11:18:03;;;;;;;14.93;11.52;;;;;;;;;;6150125;23;20025;-82
2022/03/25 11:20:39;;;;;;;15.90;12.50;;;;;;;;;;6156559;23;20463;-82
2022/03/25 11:23:13;;;;;;;14.57;11.07;;;;;;;;;;6157887;23;20017;-81
2022/03/25 11:25:46;;;;;;;15.55;10.27;;;;;;;;;;6151200;23;20361;-82
2022/03/25 11:28:19;;;;;;;27.38;11.68;;;;;;;;;;6156164;23;20544;-81
2022/03/25 11:30:57;;;;;;;15.55;10.63;;;;;;;;;;6156982;23;20014;-81
2022/03/25 11:33:25;;;;;;;19.90;11.48;;;;;;;;;;6120048;23;20028;-80
2022/03/25 11:36:13;;;;;;;14.57;11.50;;;;;;;;;;6131511;23;20021;-80
2022/03/25 11:38:41;;;;;;;29.05;14.15;;;;;;;;;;6142470;23;20029;-80
2022/03/25 11:41:23;;;;;;;13.50;9.60;;;;;;;;;;6153909;23;20032;-81
2022/03/25 11:44:10;;;;;;;17.70;14.40;;;;;;;;;;6158075;23;20831;-79
2022/03/25 11:46:59;;;;;;;37.72;17.35;;;;;;;;;;6146872;23;20477;-81
2022/03/25 11:49:29;;;;;;;20.17;13.43;;;;;;;;;;6131410;23;20025;-82
2022/03/25 11:51:57;;;;;;;20.25;12.45;;;;;;;;;;6131601;23;20014;-80
2022/03/25 11:54:37;;;;;;;20.58;13.90;;;;;;;;;;6147570;23;20026;-82
2022/03/25 11:57:06;;;;;;;23.00;14.40;;;;;;;;;;6150933;23;20032;-81
2022/03/25 11:59:49;;;;;;;26.42;14.35;;;;;;;;;;6150311;23;20030;-83
2022/03/25 12:02:26;;;;;;;29.15;14.10;;;;;;;;;;6148509;23;20029;-83
2022/03/25 12:04:58;;;;;;;;;;;;;;;;;;6147923;23;20465;-83
2022/03/25 12:07:29;;;;;;;18.83;11.35;;;;;;;;;;6131472;23;19927;-83
2022/03/25 12:09:58;;;;;;;20.45;14.73;;;;;;;;;;6124209;23;20028;-83
2022/03/25 12:12:44;;;;;;;21.67;13.80;;;;;;;;;;6130768;23;20504;-83
2022/03/25 12:15:13;;;;;;;17.70;12.52;;;;;;;;;;6132166;23;20417;-82
2022/03/25 12:17:41;;;;;;;17.40;11.82;;;;;;;;;;6118817;23;20033;-79
2022/03/25 12:20:09;;;;;;;17.08;10.95;;;;;;;;;;6131920;23;20017;-78
2022/03/25 12:22:38;;;;;;;26.60;13.95;;;;;;;;;;6157566;23;20070;-76
2022/03/25 12:25:06;;;;;;;17.20;10.73;;;;;;;;;;6127531;23;20041;-78
2022/03/25 12:27:34;;;;;;;21.55;11.95;;;;;;;;;;6157727;23;20025;-76
2022/03/25 12:30:02;;;;;;;17.35;12.85;;;;;;;;;;6149505;23;20032;-75
2022/03/25 12:32:33;;;;;;;21.10;13.32;;;;;;;;;;6155618;23;20017;-77
2022/03/25 12:35:11;;;;;;;16.70;13.65;;;;;;;;;;6158025;23;20020;-76
2022/03/25 12:37:46;;;;;;;17.90;12.20;;;;;;;;;;6149806;23;20476;-77
2022/03/25 12:40:17;;;;;;;19.98;13.85;;;;;;;;;;6156617;23;20032;-75
2022/03/25 12:42:48;;;;;;;22.90;12.73;;;;;;;;;;6157923;23;20021;-75
2022/03/25 12:45:16;;;;;;;18.27;13.88;;;;;;;;;;6152421;23;20358;-76
2022/03/25 12:47:48;;;;;;;21.80;11.63;;;;;;;;;;6157622;23;20030;-83
2022/03/25 12:50:17;;;;;;;15.02;11.95;;;;;;;;;;6147707;23;20021;-75
2022/03/25 12:52:45;;;;;;;20.83;11.27;;;;;;;;;;6125465;23;20029;-84
2022/03/25 12:55:16;;;;;;;18.42;10.77;;;;;;;;;;6107393;23;20014;-79
2022/03/25 12:57:47;;;;;;;18.35;12.85;;;;;;;;;;6120497;23;20036;-80
2022/03/25 13:00:17;;;;;;;19.52;12.65;;;;;;;;;;6147521;23;20022;-80
2022/03/25 13:02:46;;;;;;;14.70;9.73;;;;;;;;;;6157263;23;20021;-79
2022/03/25 13:05:15;;;;;;;14.43;12.43;;;;;;;;;;6096491;23;20068;-80
2022/03/25 13:07:48;;;;;;;16.48;12.27;;;;;;;;;;6156952;23;20013;-80
2022/03/25 13:10:16;;;;;;;14.02;9.82;;;;;;;;;;6122545;23;20026;-80
2022/03/25 13:12:50;;;;;;;18.90;11.98;;;;;;;;;;6154465;23;20025;-79
2022/03/25 13:15:25;;;;;;;12.93;10.55;;;;;;;;;;6156870;23;20453;-78
2022/03/25 13:17:56;;;;;;;15.60;11.23;;;;;;;;;;6150947;23;20034;-79
2022/03/25 13:20:28;;;;;;;14.48;9.15;;;;;;;;;;6131907;23;20440;-82
2022/03/25 13:23:05;;;;;;;16.48;9.30;;;;;;;;;;6132755;23;20028;-83
2022/03/25 13:25:39;;;;;;;17.42;13.35;;;;;;;;;;6126721;23;20034;-78
2022/03/25 13:28:11;;;;;;;15.85;10.50;;;;;;;;;;6159079;23;20025;-84
2022/03/25 13:30:44;;;;;;;12.32;9.55;;;;;;;;;;6097716;23;20029;-81
2022/03/25 13:33:13;;;;;;;18.65;12.35;;;;;;;;;;6154300;23;20025;-82
2022/03/25 13:35:44;;;;;;;17.25;10.95;;;;;;;;;;6123226;23;20017;-82
2022/03/25 13:38:14;;;;;;;37.40;12.50;;;;;;;;;;6122278;23;20473;-80
2022/03/25 13:40:43;;;;;;;13.98;9.57;;;;;;;;;;6156612;23;20060;-81
2022/03/25 13:43:24;;;;;;;18.35;10.82;;;;;;;;;;6122725;23;20021;-81
2022/03/25 13:46:00;;;;;;;25.43;14.17;;;;;;;;;;6124050;23;20036;-81
2022/03/25 13:48:37;;;;;;;15.52;11.68;;;;;;;;;;6157145;23;20020;-82
2022/03/25 13:51:16;;;;;;;15.57;10.10;;;;;;;;;;6159128;23;20035;-79
2022/03/25 13:53:44;;;;;;;14.88;10.75;;;;;;;;;;6151405;23;20034;-79
2022/03/25 13:56:22;;;;;;;27.48;13.32;;;;;;;;;;6158602;23;20013;-78
2022/03/25 13:58:50;;;;;;;15.32;12.27;;;;;;;;;;6098041;23;20034;-77
2022/03/25 14:01:31;;;;;;;16.67;12.02;;;;;;;;;;6122149;23;20161;-76
2022/03/25 14:04:06;;;;;;;15.30;11.57;;;;;;;;;;6123021;23;20041;-76
2022/03/25 14:06:35;;;;;;;17.98;10.38;;;;;;;;;;6148551;23;20025;-77
2022/03/25 14:09:27;;;;;;;80.00;17.23;;;;;;;;;;6125870;23;20025;-77
2022/03/25 14:11:56;;;;;;;19.63;10.55;;;;;;;;;;6157842;23;20076;-82
2022/03/25 14:14:41;;;;;;;16.85;10.93;;;;;;;;;;6146703;23;20036;-79
2022/03/25 14:17:12;;;;;;;12.63;10.52;;;;;;;;;;6153555;23;20033;-81
2022/03/25 14:19:41;;;;;;;14.88;9.23;;;;;;;;;;6158334;23;20024;-77
2022/03/25 14:22:10;;;;;;;17.00;10.05;;;;;;;;;;6149008;23;20036;-78
2022/03/25 14:24:38;;;;;;;26.48;13.63;;;;;;;;;;6155658;23;20030;-78
2022/03/25 14:27:08;;;;;;;15.50;10.10;;;;;;;;;;6158286;23;20013;-78
2022/03/25 14:29:36;;;;;;;15.93;10.93;;;;;;;;;;6151504;23;20029;-80
2022/03/25 14:32:04;;;;;;;21.23;11.55;;;;;;;;;;6133060;23;20465;-78
2022/03/25 14:34:32;;;;;;;12.93;9.68;;;;;;;;;;6120341;23;20718;-79
2022/03/25 14:37:00;;;;;;;23.65;10.63;;;;;;;;;;6153022;23;20617;-81
2022/03/25 14:39:31;;;;;;;21.48;10.38;;;;;;;;;;6157803;23;20021;-84
2022/03/25 14:42:01;;;;;;;11.65;8.98;;;;;;;;;;6149759;23;20025;-79
2022/03/25 14:44:30;;;;;;;18.38;11.70;;;;;;;;;;6153722;23;20025;-79
2022/03/25 14:46:58;;;;;;;16.10;12.10;;;;;;;;;;6128778;23;20014;-81
2022/03/25 14:49:29;;;;;;;17.35;13.93;;;;;;;;;;6093966;23;20369;-80
2022/03/25 14:51:58;;;;;;;15.68;13.00;;;;;;;;;;6157780;23;20021;-80
2022/03/25 14:54:26;;;;;;;15.20;10.27;;;;;;;;;;6144101;23;20037;-80
2022/03/25 14:56:54;;;;;;;16.77;10.90;;;;;;;;;;6154643;23;20460;-80
2022/03/25 14:59:22;;;;;;;15.45;11.20;;;;;;;;;;6151439;23;20018;-78
2022/03/25 15:01:52;;;;;;;20.63;12.52;;;;;;;;;;6139242;23;20037;-81
2022/03/25 15:04:24;;;;;;;17.17;11.35;;;;;;;;;;6156644;23;20036;-85
2022/03/25 15:06:53;;;;;;;19.70;11.50;;;;;;;;;;6132132;23;20020;-82